KBFD/BFD METAR and TAF weather

Enter ICAO airport designator
Station Type Date Time Source
KBFD METAR 2018/12/10 18:53 UTC NOAA

KBFD 101853Z AUTO 01005KT 10SM OVC014 M03/M06 A3010 RMK AO2 SLP217 T10281061


Station Type Date Time Source
KBFD Decoded METAR 2018/12/10 18:53 UTC NOAA

BRADFORD REGIONAL AIRPORT, PA, United States (KBFD) 41-48N 078-38W 647M
Dec 10, 2018 - 01:53 PM EST / 2018.12.10 1853 UTC
Wind: from the N (010 degrees) at 6 MPH (5 KT):0
Visibility: 10 mile(s):0
Sky conditions: overcast
Temperature: 27.0 F (-2.8 C)
Windchill: 19 F (-7 C):1
Dew Point: 21.0 F (-6.1 C)
Relative Humidity: 77%
Pressure (altimeter): 30.1 in. Hg (1019 hPa)
ob: KBFD 101853Z AUTO 01005KT 10SM OVC014 M03/M06 A3010 RMK AO2 SLP217 T10281061
cycle: 19

Station Type Date Time Source
KBFD TAF 2018/12/10 18:58 UTC NOAA

TAF KBFD 101758Z 1018/1118 02006KT P6SM OVC014
FM110300 24003KT P6SM OVC008
FM110700 22004KT P6SM OVC007
FM111400 23007KT P6SM OVC015


Example: see airport list